createdAt,value
2023-04-20T00:00:23.333Z,19242.7695
2023-04-20T00:01:25.004Z,19246.3086
2023-04-20T00:02:26.681Z,19241.2305
2023-04-20T00:03:28.606Z,19239.9238
2023-04-20T00:04:29.969Z,19259.6914
2023-04-20T00:05:31.673Z,19271.7695
2023-04-20T00:06:33.249Z,19273.0000
2023-04-20T00:07:34.885Z,19273.5391
2023-04-20T00:08:36.541Z,19274.9238
2023-04-20T00:09:38.209Z,19269.2305
2023-04-20T00:10:39.756Z,19267.1543
2023-04-20T00:11:41.520Z,19267.3848
2023-04-20T00:12:43.081Z,19258.1543
2023-04-20T00:13:44.829Z,19253.1543
2023-04-20T00:14:46.402Z,19248.4609
2023-04-20T00:15:48.045Z,19231.0762
2023-04-20T00:16:49.687Z,19231.2305
2023-04-20T00:17:51.346Z,19228.9238
2023-04-20T00:18:53.058Z,19234.1543
2023-04-20T00:19:54.694Z,19239.2305
2023-04-20T00:20:56.240Z,19242.5391
2023-04-20T00:21:57.901Z,19236.9238
2023-04-20T00:22:59.519Z,19241.4609
2023-04-20T00:24:01.256Z,19239.1543
2023-04-20T00:25:02.849Z,19245.8457
2023-04-20T00:26:04.510Z,19257.3848
2023-04-20T00:27:06.169Z,19268.5391
2023-04-20T00:28:07.885Z,19274.0000
2023-04-20T00:29:09.482Z,19273.3848
2023-04-20T00:30:11.161Z,19269.7695
2023-04-20T00:31:12.773Z,19267.6914
2023-04-20T00:32:14.375Z,19268.7695
2023-04-20T00:33:16.036Z,19251.6914
2023-04-20T00:34:17.768Z,19237.0000
2023-04-20T00:35:19.362Z,19233.0762
2023-04-20T00:36:21.006Z,19241.2305
2023-04-20T00:37:22.648Z,19235.6914
2023-04-20T00:38:24.322Z,19239.4609
2023-04-20T00:39:25.923Z,19240.3848
2023-04-20T00:40:27.688Z,19242.6914
2023-04-20T00:41:29.309Z,19240.9238
2023-04-20T00:42:31.513Z,19250.3848
2023-04-20T00:43:32.561Z,19267.0000
2023-04-20T00:44:34.325Z,19275.0762
2023-04-20T00:45:35.841Z,19274.5391
2023-04-20T00:46:37.524Z,19271.2305
2023-04-20T00:47:39.126Z,19268.2305
2023-04-20T00:48:40.731Z,19272.3848
2023-04-20T00:49:42.472Z,19258.3086
2023-04-20T00:50:45.041Z,19242.3848
2023-04-20T00:51:45.730Z,19240.4609
2023-04-20T00:52:47.359Z,19243.6914
2023-04-20T00:53:49.035Z,19243.3848
2023-04-20T00:54:50.668Z,19239.3848
2023-04-20T00:55:52.351Z,19245.8457
2023-04-20T00:56:54.049Z,19245.5391
2023-04-20T00:57:55.596Z,19245.6152
2023-04-20T00:58:57.242Z,19253.6914
2023-04-20T00:59:58.971Z,19264.3848
2023-04-20T01:01:00.557Z,19271.3848
2023-04-20T01:02:02.379Z,19274.3848
2023-04-20T01:03:03.962Z,19274.2305
2023-04-20T01:04:05.642Z,19276.5391
2023-04-20T01:05:07.209Z,19268.8457
2023-04-20T01:06:08.784Z,19256.8457
2023-04-20T01:07:10.395Z,19247.0762
2023-04-20T01:08:12.073Z,19243.0000
2023-04-20T01:09:13.799Z,19238.1543
2023-04-20T01:10:15.433Z,19236.8457
2023-04-20T01:11:16.972Z,19245.4609
2023-04-20T01:12:18.655Z,19247.4609
2023-04-20T01:13:20.280Z,19251.2305
2023-04-20T01:14:21.923Z,19252.0000
2023-04-20T01:15:23.646Z,19263.3848
2023-04-20T01:16:25.244Z,19271.6152
2023-04-20T01:17:26.956Z,19278.3848
2023-04-20T01:18:28.551Z,19273.0000
2023-04-20T01:19:30.203Z,19271.3086
2023-04-20T01:20:31.831Z,19273.1543
2023-04-20T01:21:33.521Z,19264.0762
2023-04-20T01:22:35.099Z,19270.0000
2023-04-20T01:23:36.769Z,19266.7695
2023-04-20T01:24:38.482Z,19251.1543
2023-04-20T01:25:40.128Z,19250.1543
2023-04-20T01:26:41.751Z,19241.5391
2023-04-20T01:27:43.350Z,19234.0000
2023-04-20T01:28:45.003Z,19236.9238
2023-04-20T01:29:46.644Z,19238.4609
2023-04-20T01:30:48.349Z,19236.6152
2023-04-20T01:31:50.178Z,19231.1543
2023-04-20T01:32:51.616Z,19234.3086
2023-04-20T01:33:53.211Z,19238.3848
2023-04-20T01:34:54.913Z,19241.3086
2023-04-20T01:35:56.561Z,19239.4609
2023-04-20T01:36:58.223Z,19247.0762
2023-04-20T01:37:59.765Z,19265.1543
2023-04-20T01:39:01.452Z,19267.3848
2023-04-20T01:40:03.155Z,19272.2305
2023-04-20T01:41:04.843Z,19275.1543
2023-04-20T01:42:06.429Z,19268.0000
2023-04-20T01:43:08.168Z,19268.0000
2023-04-20T01:44:09.707Z,19271.0000
2023-04-20T01:45:11.397Z,19262.3848
2023-04-20T01:46:13.104Z,19256.7695
2023-04-20T01:47:14.732Z,19247.4609
2023-04-20T01:48:16.299Z,19236.3086
2023-04-20T01:49:18.118Z,19232.2305
2023-04-20T01:50:19.654Z,19238.0000
2023-04-20T01:51:21.305Z,19240.0000
2023-04-20T01:52:22.960Z,19239.0000
2023-04-20T01:53:24.527Z,19240.5391
2023-04-20T01:54:26.206Z,19242.4609
2023-04-20T01:55:28.485Z,19249.0000
2023-04-20T01:56:29.593Z,19261.0762
2023-04-20T01:57:31.118Z,19268.9238
2023-04-20T01:58:32.822Z,19272.0000
2023-04-20T01:59:34.392Z,19276.3086
2023-04-20T02:00:36.104Z,19272.5391
2023-04-20T02:01:37.776Z,19269.7695
2023-04-20T02:02:39.624Z,19270.0000
2023-04-20T02:03:41.130Z,19266.7695
2023-04-20T02:04:42.667Z,19271.9238
2023-04-20T02:05:44.279Z,19261.2305
2023-04-20T02:06:46.074Z,19249.9238
2023-04-20T02:07:47.640Z,19241.3086
2023-04-20T02:08:49.251Z,19237.6914
2023-04-20T02:09:50.918Z,19233.3086
2023-04-20T02:10:52.551Z,19234.1543
2023-04-20T02:11:54.217Z,19239.7695
2023-04-20T02:12:56.601Z,19237.3086
2023-04-20T02:13:57.518Z,19239.9238
2023-04-20T02:14:59.123Z,19245.3848
2023-04-20T02:16:00.762Z,19249.6914
2023-04-20T02:17:02.468Z,19269.3848
2023-04-20T02:18:04.126Z,19271.6914
2023-04-20T02:19:05.796Z,19277.9238
2023-04-20T02:20:07.401Z,19272.9238
2023-04-20T02:21:09.005Z,19268.2305
2023-04-20T02:22:11.545Z,19270.4609
2023-04-20T02:23:12.358Z,19270.1543
2023-04-20T02:24:13.924Z,19269.2305
2023-04-20T02:25:15.641Z,19268.1543
2023-04-20T02:26:17.268Z,19259.8457
2023-04-20T02:27:18.920Z,19257.5391
2023-04-20T02:28:20.604Z,19242.3848
2023-04-20T02:29:22.166Z,19235.3086
2023-04-20T02:30:23.817Z,19229.5391
2023-04-20T02:31:25.549Z,19224.6914
2023-04-20T02:32:27.207Z,19235.2305
2023-04-20T02:33:28.807Z,19231.8457
2023-04-20T02:34:30.358Z,19236.3848
2023-04-20T02:35:32.054Z,19239.3848
2023-04-20T02:36:33.683Z,19245.9238
2023-04-20T02:37:35.445Z,19240.8457
2023-04-20T02:38:36.994Z,19251.4609
2023-04-20T02:39:38.646Z,19266.0762
2023-04-20T02:40:40.260Z,19271.2305
2023-04-20T02:41:41.959Z,19274.7695
2023-04-20T02:42:43.583Z,19272.1543
2023-04-20T02:43:46.105Z,19271.2305
2023-04-20T02:44:46.832Z,19271.5391
2023-04-20T02:45:48.493Z,19256.2305
2023-04-20T02:46:50.168Z,19242.5391
2023-04-20T02:47:51.866Z,19237.8457
2023-04-20T02:48:53.638Z,19253.9238
2023-04-20T02:49:55.115Z,19247.6152
2023-04-20T02:50:56.720Z,19232.6152
2023-04-20T02:51:58.358Z,19231.1543
2023-04-20T02:53:00.050Z,19232.8457
2023-04-20T02:54:01.694Z,19224.2305
2023-04-20T02:55:03.363Z,19226.8457
2023-04-20T02:56:04.949Z,19236.8457
2023-04-20T02:57:06.638Z,19239.6152
2023-04-20T02:58:08.274Z,19241.8457
2023-04-20T02:59:09.979Z,19237.3086
2023-04-20T03:00:11.591Z,19258.2305
2023-04-20T03:01:13.204Z,19272.8457
2023-04-20T03:02:14.949Z,19266.3086
2023-04-20T03:03:16.826Z,19269.3086
2023-04-20T03:04:18.344Z,19269.3848
2023-04-20T03:05:19.809Z,19252.5391
2023-04-20T03:06:21.519Z,19247.1543
2023-04-20T03:07:23.163Z,19238.5391
2023-04-20T03:08:24.779Z,19236.9238
2023-04-20T03:09:26.447Z,19235.0000
2023-04-20T03:10:28.006Z,19238.6152
2023-04-20T03:11:29.707Z,19236.0762
2023-04-20T03:12:31.342Z,19241.2305
2023-04-20T03:13:33.080Z,19242.1543
2023-04-20T03:14:34.663Z,19242.1543
2023-04-20T03:15:36.292Z,19265.3848
2023-04-20T03:16:37.992Z,19272.2305
2023-04-20T03:17:39.649Z,19269.5391
2023-04-20T03:18:41.600Z,19268.6914
2023-04-20T03:19:42.899Z,19267.5391
2023-04-20T03:20:44.475Z,19268.3086
2023-04-20T03:21:46.154Z,19269.0762
2023-04-20T03:22:47.807Z,19271.6152
2023-04-20T03:23:49.510Z,19270.4609
2023-04-20T03:24:53.320Z,19260.6914
2023-04-20T03:25:52.763Z,19244.3086
2023-04-20T03:26:54.358Z,19243.0000
2023-04-20T03:27:56.056Z,19237.8457
2023-04-20T03:28:57.678Z,19237.6914
2023-04-20T03:29:59.416Z,19237.2305
2023-04-20T03:31:01.022Z,19232.6152
2023-04-20T03:32:02.687Z,19238.6914
2023-04-20T03:33:04.279Z,19243.1543
2023-04-20T03:34:06.001Z,19241.0762
2023-04-20T03:35:07.654Z,19252.4609
2023-04-20T03:36:09.225Z,19265.1543
2023-04-20T03:37:10.885Z,19270.4609
2023-04-20T03:38:12.495Z,19271.6914
2023-04-20T03:39:14.604Z,19267.0762
2023-04-20T03:40:15.857Z,19269.9238
2023-04-20T03:41:17.470Z,19264.4609
2023-04-20T03:42:19.106Z,19267.9238
2023-04-20T03:43:21.553Z,19261.2305
2023-04-20T03:44:22.457Z,19263.3086
2023-04-20T03:45:24.107Z,19251.0000
2023-04-20T03:46:25.815Z,19239.6914
2023-04-20T03:47:27.362Z,19234.5391
2023-04-20T03:48:28.991Z,19236.1543
2023-04-20T03:49:31.106Z,19241.7695
2023-04-20T03:50:32.636Z,19234.3848
2023-04-20T03:51:33.972Z,19237.6152
2023-04-20T03:52:35.581Z,19237.3086
2023-04-20T03:53:39.448Z,19234.6152
2023-04-20T03:54:38.983Z,19233.9238
2023-04-20T03:55:40.588Z,19236.7695
2023-04-20T03:56:42.147Z,19240.9238
2023-04-20T03:57:43.769Z,19240.6152
2023-04-20T03:58:45.430Z,19238.8457
2023-04-20T03:59:47.144Z,19220.9238
2023-04-20T04:00:48.839Z,19211.0000
2023-04-20T04:01:50.393Z,19199.1543
2023-04-20T04:02:52.102Z,19193.8457
2023-04-20T04:03:54.069Z,19186.5391
2023-04-20T04:04:55.497Z,19188.9238
2023-04-20T04:05:56.944Z,19197.3848
2023-04-20T04:06:58.639Z,19201.8457
2023-04-20T04:08:00.250Z,19208.0000
2023-04-20T04:09:02.850Z,19197.3086
2023-04-20T04:10:03.637Z,19201.1543
2023-04-20T04:11:05.244Z,19187.4609
2023-04-20T04:12:06.792Z,19181.0000
2023-04-20T04:13:08.485Z,19179.8457
2023-04-20T04:14:10.083Z,19178.1543
2023-04-20T04:15:11.802Z,19176.0000
2023-04-20T04:16:13.414Z,19173.4609
2023-04-20T04:17:15.149Z,19171.6914
2023-04-20T04:18:16.673Z,19163.8457
2023-04-20T04:19:18.716Z,19160.0762
2023-04-20T04:20:19.997Z,19162.0762
2023-04-20T04:21:21.665Z,19162.8457
2023-04-20T04:22:23.238Z,19160.8457
2023-04-20T04:23:24.930Z,19159.3086
2023-04-20T04:24:26.613Z,19159.0000
2023-04-20T04:25:28.291Z,19160.3086
2023-04-20T04:26:30.175Z,19151.8457
2023-04-20T04:27:31.559Z,19148.3848
2023-04-20T04:28:33.134Z,19145.0000
2023-04-20T04:29:34.812Z,19140.3086
2023-04-20T04:30:36.407Z,19138.6914
2023-04-20T04:31:38.136Z,19136.4609
2023-04-20T04:32:39.847Z,19134.2305
2023-04-20T04:33:41.454Z,19135.3848
2023-04-20T04:34:42.989Z,19130.3848
2023-04-20T04:35:44.727Z,19127.0000
2023-04-20T04:36:46.362Z,19119.9238
2023-04-20T04:37:47.960Z,19119.3086
2023-04-20T04:38:49.575Z,19119.2305
2023-04-20T04:39:51.289Z,19124.7695
2023-04-20T04:40:52.872Z,19124.5391
2023-04-20T04:41:54.616Z,19118.7695
2023-04-20T04:42:56.213Z,19118.5391
2023-04-20T04:43:57.794Z,19117.5391
2023-04-20T04:44:59.483Z,19113.4609
2023-04-20T04:46:01.123Z,19110.1543
2023-04-20T04:47:02.748Z,19110.0000
2023-04-20T04:48:06.073Z,19107.8457
2023-04-20T04:49:06.099Z,19108.7695
2023-04-20T04:50:07.740Z,19110.0762
2023-04-20T04:51:09.303Z,19108.4609
2023-04-20T04:52:11.062Z,19108.4609
2023-04-20T04:53:13.588Z,19102.0762
2023-04-20T04:54:14.305Z,19103.1543
2023-04-20T04:55:16.550Z,19096.9238
2023-04-20T04:56:17.589Z,19095.1543
2023-04-20T04:57:19.295Z,19097.6152
2023-04-20T04:58:20.895Z,19101.0762
2023-04-20T04:59:22.525Z,19092.1543
2023-04-20T05:00:24.123Z,19089.3848
2023-04-20T05:01:25.957Z,19095.6914
2023-04-20T05:02:27.691Z,19088.3086
2023-04-20T05:03:29.278Z,19092.1543
2023-04-20T05:04:30.832Z,19093.4609
2023-04-20T05:05:32.399Z,19093.5391
2023-04-20T05:06:34.015Z,19098.4609
2023-04-20T05:07:35.746Z,19099.1543
2023-04-20T05:08:37.267Z,19091.9238
2023-04-20T05:09:38.953Z,19084.0762
2023-04-20T05:10:40.584Z,19086.7695
2023-04-20T05:11:42.326Z,19085.6914
2023-04-20T05:12:43.974Z,19090.8457
2023-04-20T05:13:45.725Z,19087.4609
2023-04-20T05:14:47.255Z,19085.5391
2023-04-20T05:15:48.826Z,19081.2305
2023-04-20T05:16:51.153Z,19081.5391
2023-04-20T05:17:52.279Z,19081.0762
2023-04-20T05:18:53.829Z,19077.4609
2023-04-20T05:19:55.425Z,19077.3086
2023-04-20T05:20:56.984Z,19081.1543
2023-04-20T05:21:58.710Z,19080.0000
2023-04-20T05:23:00.383Z,19082.0762
2023-04-20T05:24:02.008Z,19081.0000
2023-04-20T05:25:03.701Z,19074.9238
2023-04-20T05:26:05.295Z,19078.2305
2023-04-20T05:27:06.963Z,19078.6152
2023-04-20T05:28:08.596Z,19088.9238
2023-04-20T05:29:10.206Z,19084.6914
2023-04-20T05:30:20.233Z,19084.8457
2023-04-20T05:31:13.557Z,19082.3848
2023-04-20T05:32:15.154Z,19084.0000
2023-04-20T05:33:16.881Z,19078.0000
2023-04-20T05:34:18.443Z,19079.3086
2023-04-20T05:35:20.121Z,19084.2305
2023-04-20T05:36:21.714Z,19083.5391
2023-04-20T05:37:23.416Z,19082.3086
2023-04-20T05:38:25.049Z,19083.1543
2023-04-20T05:39:26.736Z,19083.3848
2023-04-20T05:40:28.299Z,19079.1543
2023-04-20T05:41:29.956Z,19077.9238
2023-04-20T05:42:31.632Z,19075.2305
2023-04-20T05:43:33.264Z,19065.8457
2023-04-20T05:44:34.844Z,19074.6914
2023-04-20T05:45:36.628Z,19074.6152
2023-04-20T05:46:38.171Z,19071.9238
2023-04-20T05:47:39.928Z,19079.3848
2023-04-20T05:48:41.543Z,19072.6914
2023-04-20T05:49:43.162Z,19071.6152
2023-04-20T05:50:44.831Z,19070.6152
2023-04-20T05:51:46.408Z,19068.0762
2023-04-20T05:52:48.137Z,19068.9238
2023-04-20T05:53:49.682Z,19066.3848
2023-04-20T05:54:51.329Z,19069.0762
2023-04-20T05:55:52.923Z,19071.7695
2023-04-20T05:56:54.643Z,19074.0000
2023-04-20T05:57:56.627Z,19065.1543
2023-04-20T05:58:58.091Z,19063.6152
2023-04-20T05:59:59.504Z,19068.1543
2023-04-20T06:01:02.170Z,19070.3848
2023-04-20T06:02:02.885Z,19073.6914
2023-04-20T06:03:04.826Z,19066.7695
2023-04-20T06:04:06.401Z,19067.5391
2023-04-20T06:05:07.964Z,19056.6914
2023-04-20T06:06:09.408Z,19061.8457
2023-04-20T06:07:11.067Z,19068.6152
2023-04-20T06:08:12.794Z,19066.7695
2023-04-20T06:09:14.380Z,19053.4609
2023-04-20T06:10:15.956Z,19055.7695
2023-04-20T06:11:17.687Z,19052.6152
2023-04-20T06:12:19.239Z,19053.7695
2023-04-20T06:13:21.147Z,19049.8457
2023-04-20T06:14:22.556Z,19060.9238
2023-04-20T06:15:24.221Z,19059.5391
2023-04-20T06:16:25.900Z,19055.5391
2023-04-20T06:17:27.568Z,19050.8457
2023-04-20T06:18:29.625Z,19045.3086
2023-04-20T06:19:30.805Z,19052.3848
2023-04-20T06:20:32.482Z,19059.0762
2023-04-20T06:21:34.093Z,19061.3086
2023-04-20T06:22:35.687Z,19057.4609
2023-04-20T06:23:37.677Z,19063.6152
2023-04-20T06:24:38.977Z,19061.8457
2023-04-20T06:25:40.619Z,19063.1543
2023-04-20T06:26:42.380Z,19057.3848
2023-04-20T06:27:43.943Z,19060.4609
2023-04-20T06:28:48.668Z,19062.0000
2023-04-20T06:29:47.277Z,19058.9238
2023-04-20T06:30:48.912Z,19061.2305
2023-04-20T06:31:50.541Z,19053.8457
2023-04-20T06:32:52.294Z,19053.5391
2023-04-20T06:33:53.841Z,19051.2305
2023-04-20T06:34:55.419Z,19045.4609
2023-04-20T06:35:57.080Z,19054.5391
2023-04-20T06:36:58.744Z,19044.8457
2023-04-20T06:38:00.387Z,19043.7695
2023-04-20T06:39:02.117Z,19053.3848
2023-04-20T06:40:03.619Z,19051.6152
2023-04-20T06:41:05.272Z,19054.8457
2023-04-20T06:42:06.948Z,19047.2305
2023-04-20T06:43:08.588Z,19047.4609
2023-04-20T06:44:10.199Z,19032.0000
2023-04-20T06:45:11.899Z,19019.4609
2023-04-20T06:46:13.500Z,19024.6914
2023-04-20T06:47:15.133Z,19034.6914
2023-04-20T06:48:30.915Z,19037.0762
2023-04-20T06:49:18.549Z,19033.3848
2023-04-20T06:50:20.051Z,19035.9238
2023-04-20T06:51:22.571Z,19036.0000
2023-04-20T06:52:24.130Z,19034.1543
2023-04-20T06:53:25.621Z,19031.3086
2023-04-20T06:54:26.682Z,19030.5391
2023-04-20T06:55:28.924Z,19031.9238
2023-04-20T06:56:30.584Z,19034.3848
2023-04-20T06:57:31.582Z,19035.8457
2023-04-20T06:58:33.173Z,19034.3848
2023-04-20T06:59:34.837Z,19031.8457
2023-04-20T07:00:36.464Z,19034.5391
2023-04-20T07:01:38.197Z,19041.5391
2023-04-20T07:02:39.843Z,19039.6914
2023-04-20T07:03:42.314Z,19034.5391
2023-04-20T07:04:43.127Z,19033.2305
2023-04-20T07:05:44.692Z,19033.3848
2023-04-20T07:06:46.282Z,19032.5391
2023-04-20T07:07:47.939Z,19038.3848
2023-04-20T07:08:49.596Z,19037.4609
2023-04-20T07:09:51.238Z,19038.3848
2023-04-20T07:10:52.916Z,19042.1543
2023-04-20T07:11:54.483Z,19036.1543
2023-04-20T07:12:56.299Z,19027.0762
2023-04-20T07:13:57.953Z,19028.3086
2023-04-20T07:14:59.751Z,19025.8457
2023-04-20T07:16:01.280Z,19025.3086
2023-04-20T07:17:02.928Z,19023.8457
2023-04-20T07:18:04.614Z,19027.3086
2023-04-20T07:19:06.161Z,19024.7695
2023-04-20T07:20:07.875Z,19025.0762
2023-04-20T07:21:09.450Z,19021.5391
2023-04-20T07:22:11.132Z,19019.6914
2023-04-20T07:23:13.687Z,19020.5391
2023-04-20T07:24:14.400Z,19021.6152
2023-04-20T07:25:16.041Z,19017.1543
2023-04-20T07:26:18.638Z,19016.8457
2023-04-20T07:27:19.272Z,19015.1543
2023-04-20T07:28:21.874Z,19014.0000
2023-04-20T07:29:23.593Z,19015.0000
2023-04-20T07:30:24.189Z,19013.8457
2023-04-20T07:31:25.894Z,19015.0000
2023-04-20T07:32:27.994Z,19011.7695
2023-04-20T07:33:29.273Z,19011.7695
2023-04-20T07:34:30.853Z,19012.5391
2023-04-20T07:35:32.554Z,19009.0762
2023-04-20T07:36:34.056Z,19010.6152
2023-04-20T07:37:35.978Z,19011.0762
2023-04-20T07:38:37.977Z,19006.9238
2023-04-20T07:39:39.006Z,19006.1543
2023-04-20T07:40:40.987Z,19008.5391
2023-04-20T07:41:42.334Z,19012.1543
2023-04-20T07:42:43.894Z,19004.7695
2023-04-20T07:43:46.382Z,19003.2305
2023-04-20T07:44:47.317Z,19003.1543
2023-04-20T07:45:48.995Z,19006.3086
2023-04-20T07:46:50.622Z,19006.6152
2023-04-20T07:47:52.185Z,19009.0762
2023-04-20T07:48:54.090Z,19004.5391
2023-04-20T07:49:55.501Z,18999.3086
2023-04-20T07:50:58.257Z,19000.7695
2023-04-20T07:52:09.343Z,19002.2305
2023-04-20T07:53:00.211Z,19004.7695
2023-04-20T07:54:01.937Z,19002.3848
2023-04-20T07:55:03.545Z,19000.0000
2023-04-20T07:56:05.231Z,18994.5391
2023-04-20T07:57:06.825Z,18994.8457
2023-04-20T07:58:08.573Z,18997.6914
2023-04-20T07:59:10.554Z,18996.7695
2023-04-20T08:00:11.827Z,18996.3848
2023-04-20T08:01:13.532Z,18993.8457
2023-04-20T08:02:15.100Z,18995.6914
2023-04-20T08:03:17.062Z,18989.3848
2023-04-20T08:04:18.554Z,18987.1543
2023-04-20T08:05:20.134Z,18988.7695
2023-04-20T08:06:21.698Z,18990.3848
2023-04-20T08:07:23.266Z,18985.6914
2023-04-20T08:08:24.953Z,18985.6914
2023-04-20T08:09:26.558Z,18983.0000
2023-04-20T08:10:28.222Z,18985.0000
2023-04-20T08:11:29.896Z,18984.7695
2023-04-20T08:12:31.463Z,18981.8457
2023-04-20T08:13:33.112Z,18987.3086
2023-04-20T08:14:34.810Z,18984.0000
2023-04-20T08:15:36.501Z,18983.8457
2023-04-20T08:16:38.087Z,18985.0000
2023-04-20T08:17:39.786Z,18984.7695
2023-04-20T08:18:41.472Z,18978.5391
2023-04-20T08:19:44.965Z,18979.6152
2023-04-20T08:20:44.622Z,18989.9238
2023-04-20T08:21:46.322Z,18982.3848
2023-04-20T08:22:47.944Z,18981.6152
2023-04-20T08:23:49.513Z,18977.6152
2023-04-20T08:24:51.204Z,18975.6152
2023-04-20T08:25:52.862Z,18977.3848
2023-04-20T08:26:54.570Z,18976.2305
2023-04-20T08:27:56.096Z,18976.3848
2023-04-20T08:28:57.783Z,18978.0000
2023-04-20T08:29:59.409Z,18976.4609
2023-04-20T08:31:01.112Z,18981.8457
2023-04-20T08:32:02.998Z,18980.8457
2023-04-20T08:33:04.414Z,18973.2305
2023-04-20T08:34:05.952Z,18974.3086
2023-04-20T08:35:08.436Z,18975.1543
2023-04-20T08:36:09.266Z,18973.1543
2023-04-20T08:37:11.857Z,18976.9238
2023-04-20T08:38:17.917Z,18973.6152
2023-04-20T08:39:14.185Z,18971.9238
2023-04-20T08:40:15.860Z,18977.3848
2023-04-20T08:41:17.563Z,18966.6914
2023-04-20T08:42:19.237Z,18962.9238
2023-04-20T08:43:22.015Z,18967.5391
2023-04-20T08:44:22.540Z,18958.7695
2023-04-20T08:45:24.053Z,18957.4609
2023-04-20T08:46:25.789Z,18959.1543
2023-04-20T08:47:28.335Z,18962.5391
2023-04-20T08:48:29.058Z,18965.4609
2023-04-20T08:49:30.644Z,18953.5391
2023-04-20T08:50:32.319Z,18960.3848
2023-04-20T08:51:33.989Z,18958.1543
2023-04-20T08:52:35.652Z,18961.1543
2023-04-20T08:53:37.241Z,18959.6914
2023-04-20T08:54:42.790Z,18953.6152
2023-04-20T08:55:40.489Z,18958.3086
2023-04-20T08:56:42.201Z,18963.4609
2023-04-20T08:57:43.932Z,18962.6152
2023-04-20T08:58:45.459Z,18956.8457
2023-04-20T08:59:47.098Z,18960.6152
2023-04-20T09:00:48.794Z,18961.0762
2023-04-20T09:01:50.455Z,18963.9238
2023-04-20T09:02:52.162Z,18966.3848
2023-04-20T09:03:53.832Z,18968.2305
2023-04-20T09:04:55.440Z,18969.1543
2023-04-20T09:05:57.028Z,18966.8457
2023-04-20T09:06:58.699Z,18974.1543
2023-04-20T09:08:00.326Z,18974.9238
2023-04-20T09:09:01.857Z,18976.6152
2023-04-20T09:10:03.567Z,18970.5391
2023-04-20T09:11:05.154Z,18978.4609
2023-04-20T09:12:06.923Z,18981.3848
2023-04-20T09:13:08.565Z,18983.0000
2023-04-20T09:14:10.171Z,18984.7695
2023-04-20T09:15:11.758Z,18988.9238
2023-04-20T09:16:13.498Z,18982.1543
2023-04-20T09:17:14.990Z,18989.2305
2023-04-20T09:18:16.869Z,18992.0762
2023-04-20T09:19:18.319Z,18998.3086
2023-04-20T09:20:19.974Z,19000.0762
2023-04-20T09:21:21.627Z,19003.6914
2023-04-20T09:22:23.297Z,18998.8457
2023-04-20T09:23:24.980Z,18997.0000
2023-04-20T09:24:26.569Z,18996.2305
2023-04-20T09:25:29.017Z,19010.5391
2023-04-20T09:26:29.871Z,19011.9238
2023-04-20T09:27:31.480Z,19014.4609
2023-04-20T09:28:33.201Z,19015.0000
2023-04-20T09:29:34.789Z,19011.6152
2023-04-20T09:30:37.284Z,19010.3086
2023-04-20T09:31:38.055Z,19011.1543
2023-04-20T09:32:40.376Z,19016.1543
2023-04-20T09:33:41.466Z,19013.6914
2023-04-20T09:34:43.093Z,19018.2305
2023-04-20T09:35:44.660Z,19024.3086
2023-04-20T09:36:46.316Z,19028.1543
2023-04-20T09:37:47.960Z,19032.0000
2023-04-20T09:38:49.678Z,19018.6152
2023-04-20T09:39:51.191Z,19034.8457
2023-04-20T09:40:52.853Z,19041.3086
2023-04-20T09:41:54.466Z,19048.9238
2023-04-20T09:42:56.131Z,19047.3848
2023-04-20T09:43:58.711Z,19037.4609
2023-04-20T09:44:59.466Z,19024.2305
2023-04-20T09:46:01.094Z,19022.2305
2023-04-20T09:47:03.328Z,19018.9238
2023-04-20T09:48:04.355Z,19017.2305
2023-04-20T09:49:06.185Z,19012.9238
2023-04-20T09:50:22.921Z,19016.5391
2023-04-20T09:51:09.392Z,19024.9238
2023-04-20T09:52:10.959Z,19036.0000
2023-04-20T09:53:13.188Z,19024.5391
2023-04-20T09:54:14.338Z,19023.2305
2023-04-20T09:55:15.970Z,19011.3848
2023-04-20T09:56:17.535Z,19010.3086
2023-04-20T09:57:19.247Z,19021.9238
2023-04-20T09:58:21.087Z,19027.3086
2023-04-20T09:59:22.506Z,19018.7695
2023-04-20T10:00:24.162Z,19019.3848
2023-04-20T10:01:25.897Z,19025.7695
2023-04-20T10:02:27.501Z,19033.6152
2023-04-20T10:03:29.321Z,19043.0762
2023-04-20T10:04:31.070Z,19046.8457
2023-04-20T10:05:32.759Z,19051.6152
2023-04-20T10:06:34.415Z,19056.4609
2023-04-20T10:07:35.891Z,19055.0000
2023-04-20T10:08:37.544Z,19049.3086
2023-04-20T10:09:42.465Z,19049.6152
2023-04-20T10:10:45.509Z,19037.9277
2023-04-20T10:11:53.504Z,19044.3086
2023-04-20T10:12:48.781Z,19052.3848
2023-04-20T10:13:50.434Z,19042.6914
2023-04-20T10:14:52.122Z,19055.8457
2023-04-20T10:15:53.731Z,19062.8457
2023-04-20T10:16:55.532Z,19063.8457
2023-04-20T10:17:57.185Z,19062.0762
2023-04-20T10:18:58.682Z,19060.4609
2023-04-20T10:20:00.564Z,19051.8457
2023-04-20T10:21:02.028Z,19059.6152
2023-04-20T10:22:03.559Z,19050.2305
2023-04-20T10:23:05.248Z,19050.2305
2023-04-20T10:24:06.961Z,19059.4609
2023-04-20T10:25:08.470Z,19067.8457
2023-04-20T10:26:11.101Z,19074.0762
2023-04-20T10:27:12.681Z,19076.6914
2023-04-20T10:28:13.529Z,19080.9238
2023-04-20T10:29:15.037Z,19069.5391
2023-04-20T10:30:16.774Z,19059.5391
2023-04-20T10:31:18.382Z,19062.5391
2023-04-20T10:32:20.040Z,19053.6152
2023-04-20T10:33:21.762Z,19061.0000
2023-04-20T10:34:23.413Z,19073.2305
2023-04-20T10:35:24.974Z,19085.3848
2023-04-20T10:36:26.565Z,19087.9238
2023-04-20T10:37:28.216Z,19083.3086
2023-04-20T10:38:30.080Z,19077.5391
2023-04-20T10:39:31.684Z,19069.4609
2023-04-20T10:40:33.148Z,19053.3848
2023-04-20T10:41:35.499Z,19050.3848
2023-04-20T10:42:36.487Z,19049.6914
2023-04-20T10:43:38.135Z,19049.5391
2023-04-20T10:44:39.847Z,19056.4609
2023-04-20T10:45:41.407Z,19078.5391
2023-04-20T10:46:43.088Z,19089.0762
2023-04-20T10:47:44.663Z,19093.1543
2023-04-20T10:48:46.426Z,19092.6152
2023-04-20T10:49:48.036Z,19093.0762
2023-04-20T10:50:49.665Z,19088.6152
2023-04-20T10:51:51.245Z,19089.8457
2023-04-20T10:52:52.956Z,19087.4609
2023-04-20T10:53:54.650Z,19080.0762
2023-04-20T10:54:56.272Z,19065.6152
2023-04-20T10:55:58.819Z,19060.0762
2023-04-20T10:57:00.471Z,19072.7695
2023-04-20T10:58:01.200Z,19084.2305
2023-04-20T10:59:03.041Z,19087.0000
2023-04-20T11:00:04.549Z,19083.9238
2023-04-20T11:01:06.211Z,19073.9238
2023-04-20T11:02:07.988Z,19067.7695
2023-04-20T11:03:09.509Z,19074.0000
2023-04-20T11:04:11.171Z,19073.8457
2023-04-20T11:05:12.947Z,19076.5391
2023-04-20T11:06:15.408Z,19062.0762
2023-04-20T11:07:16.076Z,19062.3086
2023-04-20T11:08:17.730Z,19075.6152
2023-04-20T11:09:19.610Z,19075.3086
2023-04-20T11:10:21.074Z,19080.8457
2023-04-20T11:11:22.596Z,19078.4609
2023-04-20T11:12:24.275Z,19079.3086
2023-04-20T11:13:25.968Z,19088.9238
2023-04-20T11:14:27.795Z,19080.3086
2023-04-20T11:15:29.280Z,19066.6914
2023-04-20T11:16:47.506Z,19064.0000
2023-04-20T11:17:32.655Z,19072.7695
2023-04-20T11:18:34.242Z,19090.5391
2023-04-20T11:19:35.773Z,19083.6152
2023-04-20T11:20:37.540Z,19088.3848
2023-04-20T11:21:39.169Z,19087.3848
2023-04-20T11:22:40.769Z,19087.6152
2023-04-20T11:23:42.347Z,19083.2305